Crown Princess — ZCDM6 — position and weather

sailwx.info

Track history (hours):
 
Tides and Currents Weather Stations Pressure Air Temp Water Temp Dewpoint Dewpoint Depression Visibility Wind Speed Wind Dir Waves Ship Positions

Crown Princess

Last reported at 2015-Aug-29 16:31 UTC. Time now 2015-Aug-29 16:59 UTC.
Position N 47°38' W 122°23'.

Type: Ship. MMSI: 310500000.

Date/timePositionNaut miles runAvg speedWind from/ knotsBaromVisibWave heightAir tempDewpointWater temp
2015-Aug-29 16:31N 47°38' W 122°23'0 0.0
2015-Aug-29 15:31N 47°38' W 122°23'0 0.0
2015-Aug-29 14:33N 47°38' W 122°23'0 0.0
2015-Aug-29 13:33N 47°38' W 122°23'3 3.4
2015-Aug-29 12:33N 47°38' W 122°28'1414.5
2015-Aug-29 11:33N 47°53' W 122°29'1714.6
2015-Aug-29 10:23N 48°08' W 122°42'1213.9
2015-Aug-29 09:30N 48°12' W 122°59'1314.0
2015-Aug-29 08:33N 48°10' W 123°19'10 9.8
2015-Aug-29 07:33N 48°19' W 123°27'7 1.2
2015-Aug-29 01:33N 48°25' W 123°24'1111.2
2015-Aug-29 00:33N 48°14' W 123°29'2120.4
2015-Aug-28 23:33N 48°15' W 123°60'2221.8
2015-Aug-28 22:33N 48°24' W 124°29'2121.3
2015-Aug-28 21:33N 48°29' W 125°01'2120.8
2015-Aug-28 20:33N 48°36' W 125°30'2121.0
2015-Aug-28 19:33N 48°47' W 125°57'2120.4
2015-Aug-28 18:33N 48°59' W 126°22'2120.9
2015-Aug-28 17:33N 49°12' W 126°48'62515.1
2015-Aug-27 00:15N 58°14' W 135°33'1420.2
2015-Aug-26 23:33N 58°21' W 135°56'1312.6
2015-Aug-26 22:33N 58°33' W 136°04'1413.8
2015-Aug-26 21:32N 58°45' W 136°18'5 0.8
2015-Aug-26 15:21N 58°41' W 136°11'1013.1
2015-Aug-26 14:33N 58°31' W 136°04'1010.2
2015-Aug-26 13:33N 58°22' W 135°57'1211.6
2015-Aug-26 12:33N 58°16' W 135°37'  
2015-Aug-23 08:33N 48°60' W 126°18'2222.3
2015-Aug-23 07:34N 48°47' W 125°50'2322.8
2015-Aug-23 06:33N 48°34' W 125°22'7122.2
2015-Aug-23 03:22N 48°16' W 123°39'1417.5
2015-Aug-23 02:33N 48°08' W 123°21'4 7.5
2015-Aug-23 02:00N 48°12' W 123°24'2734.0 280 / 261019.3 5.4 14.512.812.5
2015-Aug-23 01:12N 48°10' W 122°44'1319.7
2015-Aug-23 00:31N 47°58' W 122°34'1919.8
2015-Aug-22 23:34N 47°39' W 122°27'3 3.3
2015-Aug-22 22:31N 47°38' W 122°23'0 0.0
2015-Aug-22 21:31N 47°38' W 122°23'0 0.0
2015-Aug-22 20:33N 47°38' W 122°23'0 0.0
2015-Aug-22 19:33N 47°38' W 122°23'0 0.0
2015-Aug-22 18:32N 47°38' W 122°23'0 0.0
2015-Aug-22 17:31N 47°38' W 122°23'0 0.0
2015-Aug-22 16:31N 47°38' W 122°23'0 0.0
2015-Aug-22 15:33N 47°38' W 122°23'0 0.0
2015-Aug-22 14:33N 47°38' W 122°23'0 0.0
2015-Aug-22 13:33N 47°38' W 122°23'3 3.4
2015-Aug-22 12:34N 47°39' W 122°28'1110.9
2015-Aug-22 11:34N 47°49' W 122°28'1111.2
2015-Aug-22 10:33N 47°59' W 122°36'1414.0
2015-Aug-22 09:33N 48°11' W 122°48'1615.8
2015-Aug-22 08:32N 48°11' W 123°12'1212.4
2015-Aug-22 07:33N 48°15' W 123°30'11 1.8
2015-Aug-22 01:24N 48°25' W 123°24'8 9.3
2015-Aug-22 00:33N 48°17' W 123°26'2019.8
2015-Aug-21 23:32N 48°14' W 123°56'2021.1
2015-Aug-21 22:33N 48°23' W 124°23'2221.8
2015-Aug-21 21:34N 48°29' W 124°55'2222.1
2015-Aug-21 20:33N 48°34' W 125°27'2222.4
2015-Aug-21 19:34N 48°46' W 125°56'2322.8
2015-Aug-21 18:34N 48°60' W 126°24'2322.8
2015-Aug-21 17:33N 49°14' W 126°52'36520.8
2015-Aug-21 00:00N 54°42' W 131°12'   290 / 211013.3 5.4 1.016.212.915.0
Track history (hours):
 
Tides and Currents Weather Stations Pressure Air Temp Water Temp Dewpoint Dewpoint Depression Visibility Wind Speed Wind Dir Waves Ship Positions

Crown Princess

Last reported at 2015-Aug-29 16:31 UTC. Time now 2015-Aug-29 16:59 UTC.
Position N 47°38' W 122°23'.

Type: Ship. MMSI: 310500000.

Date/timePositionNaut miles runAvg speedWind from/ knotsBaromVisibWave heightAir tempDewpointWater temp
2015-Aug-29 16:31N 47°38' W 122°23'0 0.0
2015-Aug-29 15:31N 47°38' W 122°23'0 0.0
2015-Aug-29 14:33N 47°38' W 122°23'0 0.0
2015-Aug-29 13:33N 47°38' W 122°23'3 3.4
2015-Aug-29 12:33N 47°38' W 122°28'1414.5
2015-Aug-29 11:33N 47°53' W 122°29'1714.6
2015-Aug-29 10:23N 48°08' W 122°42'1213.9
2015-Aug-29 09:30N 48°12' W 122°59'1314.0
2015-Aug-29 08:33N 48°10' W 123°19'10 9.8
2015-Aug-29 07:33N 48°19' W 123°27'7 1.2
2015-Aug-29 01:33N 48°25' W 123°24'1111.2
2015-Aug-29 00:33N 48°14' W 123°29'2120.4
2015-Aug-28 23:33N 48°15' W 123°60'2221.8
2015-Aug-28 22:33N 48°24' W 124°29'2121.3
2015-Aug-28 21:33N 48°29' W 125°01'2120.8
2015-Aug-28 20:33N 48°36' W 125°30'2121.0
2015-Aug-28 19:33N 48°47' W 125°57'2120.4
2015-Aug-28 18:33N 48°59' W 126°22'2120.9
2015-Aug-28 17:33N 49°12' W 126°48'62515.1
2015-Aug-27 00:15N 58°14' W 135°33'1420.2
2015-Aug-26 23:33N 58°21' W 135°56'1312.6
2015-Aug-26 22:33N 58°33' W 136°04'1413.8
2015-Aug-26 21:32N 58°45' W 136°18'5 0.8
2015-Aug-26 15:21N 58°41' W 136°11'1013.1
2015-Aug-26 14:33N 58°31' W 136°04'1010.2
2015-Aug-26 13:33N 58°22' W 135°57'1211.6
2015-Aug-26 12:33N 58°16' W 135°37'  
2015-Aug-23 08:33N 48°60' W 126°18'2222.3
2015-Aug-23 07:34N 48°47' W 125°50'2322.8
2015-Aug-23 06:33N 48°34' W 125°22'7122.2
2015-Aug-23 03:22N 48°16' W 123°39'1417.5
2015-Aug-23 02:33N 48°08' W 123°21'4 7.5
2015-Aug-23 02:00N 48°12' W 123°24'2734.0 280 / 261019.3 5.4 14.512.812.5
2015-Aug-23 01:12N 48°10' W 122°44'1319.7
2015-Aug-23 00:31N 47°58' W 122°34'1919.8
2015-Aug-22 23:34N 47°39' W 122°27'3 3.3
2015-Aug-22 22:31N 47°38' W 122°23'0 0.0
2015-Aug-22 21:31N 47°38' W 122°23'0 0.0
2015-Aug-22 20:33N 47°38' W 122°23'0 0.0
2015-Aug-22 19:33N 47°38' W 122°23'0 0.0
2015-Aug-22 18:32N 47°38' W 122°23'0 0.0
2015-Aug-22 17:31N 47°38' W 122°23'0 0.0
2015-Aug-22 16:31N 47°38' W 122°23'0 0.0
2015-Aug-22 15:33N 47°38' W 122°23'0 0.0
2015-Aug-22 14:33N 47°38' W 122°23'0 0.0
2015-Aug-22 13:33N 47°38' W 122°23'3 3.4
2015-Aug-22 12:34N 47°39' W 122°28'1110.9
2015-Aug-22 11:34N 47°49' W 122°28'1111.2
2015-Aug-22 10:33N 47°59' W 122°36'1414.0
2015-Aug-22 09:33N 48°11' W 122°48'1615.8
2015-Aug-22 08:32N 48°11' W 123°12'1212.4
2015-Aug-22 07:33N 48°15' W 123°30'11 1.8
2015-Aug-22 01:24N 48°25' W 123°24'8 9.3
2015-Aug-22 00:33N 48°17' W 123°26'2019.8
2015-Aug-21 23:32N 48°14' W 123°56'2021.1
2015-Aug-21 22:33N 48°23' W 124°23'2221.8
2015-Aug-21 21:34N 48°29' W 124°55'2222.1
2015-Aug-21 20:33N 48°34' W 125°27'2222.4
2015-Aug-21 19:34N 48°46' W 125°56'2322.8
2015-Aug-21 18:34N 48°60' W 126°24'2322.8
2015-Aug-21 17:33N 49°14' W 126°52'36520.8
2015-Aug-21 00:00N 54°42' W 131°12'   290 / 211013.3 5.4 1.016.212.915.0

Dump ship's entire track history